TAF KRWI
AMD KRWI 090657Z 0907/1006 00000KT P6SM SCT001 FM091300 VRB05KT P6SM BKN250=
METAR KRWI
WC KRWI
WS KRWI
WV KRWI